Main page
METAR-TAF:

METAR-TAF

Airports :

Lawrenceville–Vincennes International Airport

Lawrenceville, Illinois, United States

latitude: 38-45-38N, longitude: 087-35-56W, elevation: 430 ft

Current weather observation

The report was made 23 minutes ago, at 04:53 UTC
Wind 5 mph from the South
Temperature 75°F
Humidity 83%
Pressure 30.10 in. Hg
Visibility: 10 miles
Clear sky

METAR: KLWV 220453Z AUTO 17004KT 10SM CLR 24/21 A3010 RMK AO2 SLP186 T02390211

Time: 00:16 (05:16 UTC)


TAF: missing

Weather observations and forecasts of more than 4000 airports (METAR and TAF reports).

The available stations are represented by yellow and red dots on the map.

Hover mouse over dot to see the name of the station.

Then click to see weather observations and forecasts.

To change the map : click on the green buttons with a black cross to zoom in, on the green button with a dash to zoom out, or on the green arrows for adjacent maps.


METAR-TAF: